createdAt,value
2022-12-11T00:00:13.279Z,99.91
2022-12-11T00:01:13.245Z,99.76
2022-12-11T00:02:13.323Z,99.86
2022-12-11T00:03:16.181Z,99.13
2022-12-11T00:04:13.236Z,99.34
2022-12-11T00:05:13.206Z,99.28
2022-12-11T00:06:13.243Z,99.80
2022-12-11T00:07:13.443Z,99.80
2022-12-11T00:08:13.302Z,99.99
2022-12-11T00:09:13.167Z,98.98
2022-12-11T00:10:13.291Z,98.61
2022-12-11T00:11:13.138Z,99.29
2022-12-11T00:12:13.119Z,98.82
2022-12-11T00:13:13.108Z,99.44
2022-12-11T00:14:13.340Z,99.99
2022-12-11T00:15:13.342Z,99.99
2022-12-11T00:16:13.208Z,99.99
2022-12-11T00:17:13.261Z,99.99
2022-12-11T00:18:13.122Z,99.25
2022-12-11T00:19:13.049Z,98.10
2022-12-11T00:20:13.105Z,98.25
2022-12-11T00:21:13.044Z,99.44
2022-12-11T00:22:13.016Z,99.46
2022-12-11T00:23:13.000Z,97.89
2022-12-11T00:24:12.977Z,97.78
2022-12-11T00:25:13.143Z,97.83
2022-12-11T00:26:12.999Z,98.04
2022-12-11T00:27:15.841Z,97.68
2022-12-11T00:28:12.956Z,96.84
2022-12-11T00:29:12.996Z,96.80
2022-12-11T00:30:12.936Z,96.07
2022-12-11T00:31:12.961Z,94.50
2022-12-11T00:32:12.947Z,94.35
2022-12-11T00:33:13.015Z,93.48
2022-12-11T00:34:12.866Z,92.22
2022-12-11T00:35:13.168Z,91.54
2022-12-11T00:36:12.878Z,91.91
2022-12-11T00:37:12.934Z,91.96
2022-12-11T00:38:12.906Z,92.27
2022-12-11T00:39:13.051Z,92.90
2022-12-11T00:40:13.734Z,92.06
2022-12-11T00:41:12.777Z,93.04
2022-12-11T00:42:12.776Z,93.21
2022-12-11T00:43:12.757Z,93.35
2022-12-11T00:44:12.820Z,94.04
2022-12-11T00:45:13.004Z,93.10
2022-12-11T00:46:12.799Z,94.19
2022-12-11T00:47:12.906Z,94.71
2022-12-11T00:48:12.707Z,94.19
2022-12-11T00:49:12.958Z,93.63
2022-12-11T00:50:12.740Z,92.96
2022-12-11T00:51:12.675Z,92.08
2022-12-11T00:52:12.666Z,90.52
2022-12-11T00:53:13.498Z,89.83
2022-12-11T00:54:12.934Z,90.81
2022-12-11T00:55:13.522Z,92.16
2022-12-11T00:56:12.741Z,91.29
2022-12-11T00:57:12.677Z,90.10
2022-12-11T00:58:12.791Z,89.26
2022-12-11T00:59:12.679Z,88.29
2022-12-11T01:00:12.614Z,87.04
2022-12-11T01:01:12.662Z,87.55
2022-12-11T01:02:12.647Z,87.35
2022-12-11T01:03:12.668Z,87.70
2022-12-11T01:04:12.521Z,87.70
2022-12-11T01:05:12.873Z,88.01
2022-12-11T01:06:12.766Z,89.41
2022-12-11T01:07:12.497Z,90.77
2022-12-11T01:08:12.568Z,90.87
2022-12-11T01:09:12.457Z,90.87
2022-12-11T01:10:12.501Z,91.18
2022-12-11T01:11:12.449Z,90.52
2022-12-11T01:12:12.409Z,89.01
2022-12-11T01:13:12.438Z,88.49
2022-12-11T01:14:12.418Z,87.35
2022-12-11T01:15:12.698Z,87.70
2022-12-11T01:16:12.592Z,89.51
2022-12-11T01:17:12.380Z,90.60
2022-12-11T01:18:12.363Z,92.37
2022-12-11T01:19:12.348Z,92.54
2022-12-11T01:20:12.358Z,92.12
2022-12-11T01:21:12.349Z,92.27
2022-12-11T01:22:12.309Z,92.12
2022-12-11T01:23:12.434Z,92.37
2022-12-11T01:24:12.278Z,93.00
2022-12-11T01:25:12.613Z,93.63
2022-12-11T01:26:15.979Z,94.15
2022-12-11T01:27:12.292Z,95.03
2022-12-11T01:28:12.261Z,95.76
2022-12-11T01:29:12.228Z,96.59
2022-12-11T01:30:12.219Z,96.17
2022-12-11T01:31:12.388Z,95.86
2022-12-11T01:32:12.191Z,95.86
2022-12-11T01:33:12.180Z,95.61
2022-12-11T01:34:12.169Z,94.48
2022-12-11T01:35:12.425Z,92.81
2022-12-11T01:36:12.197Z,91.10
2022-12-11T01:37:12.324Z,89.81
2022-12-11T01:38:12.412Z,88.14
2022-12-11T01:39:12.212Z,88.81
2022-12-11T01:40:12.177Z,89.89
2022-12-11T01:41:12.089Z,91.25
2022-12-11T01:42:12.088Z,91.46
2022-12-11T01:43:12.221Z,91.10
2022-12-11T01:44:12.051Z,90.44
2022-12-11T01:45:12.402Z,89.29
2022-12-11T01:46:12.063Z,89.08
2022-12-11T01:47:12.009Z,89.54
2022-12-11T01:48:12.250Z,90.58
2022-12-11T01:49:12.555Z,91.83
2022-12-11T01:50:12.070Z,90.95
2022-12-11T01:51:12.080Z,91.25
2022-12-11T01:52:11.949Z,92.91
2022-12-11T01:53:11.950Z,94.73
2022-12-11T01:54:11.992Z,95.73
2022-12-11T01:55:12.237Z,94.75
2022-12-11T01:56:11.918Z,94.58
2022-12-11T01:57:11.901Z,95.98
2022-12-11T01:58:11.890Z,94.94
2022-12-11T01:59:11.883Z,97.13
2022-12-11T02:00:12.311Z,97.44
2022-12-11T02:01:11.917Z,96.67
2022-12-11T02:02:11.933Z,96.40
2022-12-11T02:03:11.913Z,96.09
2022-12-11T02:04:11.819Z,97.34
2022-12-11T02:05:12.115Z,96.92
2022-12-11T02:06:11.832Z,96.71
2022-12-11T02:07:11.795Z,97.03
2022-12-11T02:08:11.967Z,96.82
2022-12-11T02:09:11.760Z,98.49
2022-12-11T02:10:11.852Z,97.40
2022-12-11T02:11:11.788Z,96.15
2022-12-11T02:12:12.310Z,95.37
2022-12-11T02:13:11.781Z,94.02
2022-12-11T02:14:11.790Z,94.06
2022-12-11T02:15:12.097Z,95.29
2022-12-11T02:16:11.759Z,97.07
2022-12-11T02:17:11.712Z,96.82
2022-12-11T02:18:11.716Z,96.50
2022-12-11T02:19:11.642Z,96.19
2022-12-11T02:20:11.633Z,96.40
2022-12-11T02:21:11.618Z,95.25
2022-12-11T02:22:11.703Z,95.42
2022-12-11T02:23:11.701Z,94.90
2022-12-11T02:24:11.602Z,94.37
2022-12-11T02:25:11.762Z,95.00
2022-12-11T02:26:11.763Z,95.46
2022-12-11T02:27:11.561Z,95.83
2022-12-11T02:28:11.543Z,95.79
2022-12-11T02:29:11.563Z,94.33
2022-12-11T02:30:11.557Z,94.12
2022-12-11T02:31:11.547Z,94.27
2022-12-11T02:32:11.501Z,94.54
2022-12-11T02:33:11.475Z,93.50
2022-12-11T02:34:11.481Z,92.97
2022-12-11T02:35:12.319Z,92.97
2022-12-11T02:36:12.281Z,92.46
2022-12-11T02:37:11.493Z,93.65
2022-12-11T02:38:11.439Z,94.17
2022-12-11T02:39:11.411Z,94.37
2022-12-11T02:40:11.446Z,94.64
2022-12-11T02:41:11.381Z,93.71
2022-12-11T02:42:11.382Z,92.66
2022-12-11T02:43:11.382Z,92.41
2022-12-11T02:44:11.362Z,92.00
2022-12-11T02:45:11.610Z,91.89
2022-12-11T02:46:11.426Z,91.37
2022-12-11T02:47:11.314Z,91.16
2022-12-11T02:48:11.354Z,90.75
2022-12-11T02:49:11.356Z,90.22
2022-12-11T02:50:11.350Z,90.22
2022-12-11T02:51:11.273Z,90.44
2022-12-11T02:52:11.312Z,90.44
2022-12-11T02:53:11.255Z,91.41
2022-12-11T02:54:11.254Z,92.25
2022-12-11T02:55:11.548Z,93.12
2022-12-11T02:56:11.952Z,94.73
2022-12-11T02:57:11.217Z,95.88
2022-12-11T02:58:11.401Z,96.71
2022-12-11T02:59:11.302Z,96.46
2022-12-11T03:00:11.204Z,95.06
2022-12-11T03:01:11.465Z,94.18
2022-12-11T03:02:11.193Z,93.24
2022-12-11T03:03:11.172Z,92.93
2022-12-11T03:04:11.165Z,93.08
2022-12-11T03:05:11.452Z,92.83
2022-12-11T03:06:11.123Z,92.21
2022-12-11T03:07:11.825Z,92.14
2022-12-11T03:08:12.194Z,91.58
2022-12-11T03:09:11.163Z,91.16
2022-12-11T03:10:11.222Z,90.54
2022-12-11T03:11:11.135Z,90.58
2022-12-11T03:12:11.881Z,91.52
2022-12-11T03:13:11.075Z,92.25
2022-12-11T03:14:11.014Z,92.46
2022-12-11T03:15:11.249Z,91.93
2022-12-11T03:16:11.095Z,91.89
2022-12-11T03:17:10.974Z,91.47
2022-12-11T03:18:10.964Z,91.37
2022-12-11T03:19:11.445Z,91.06
2022-12-11T03:20:10.990Z,91.06
2022-12-11T03:21:10.972Z,91.68
2022-12-11T03:22:11.100Z,92.10
2022-12-11T03:23:10.964Z,92.21
2022-12-11T03:24:10.913Z,91.89
2022-12-11T03:25:11.057Z,91.85
2022-12-11T03:26:10.883Z,91.64
2022-12-11T03:27:11.263Z,91.43
2022-12-11T03:28:10.853Z,91.64
2022-12-11T03:29:10.857Z,93.18
2022-12-11T03:30:10.825Z,94.33
2022-12-11T03:31:10.899Z,94.08
2022-12-11T03:32:11.536Z,94.49
2022-12-11T03:33:10.807Z,94.29
2022-12-11T03:34:11.596Z,94.39
2022-12-11T03:35:11.062Z,94.18
2022-12-11T03:36:10.797Z,95.37
2022-12-11T03:37:10.762Z,95.12
2022-12-11T03:38:10.772Z,94.60
2022-12-11T03:39:10.742Z,94.24
2022-12-11T03:40:10.735Z,93.52
2022-12-11T03:41:10.724Z,92.89
2022-12-11T03:42:10.806Z,92.83
2022-12-11T03:43:10.761Z,95.10
2022-12-11T03:44:10.716Z,96.62
2022-12-11T03:45:11.041Z,96.58
2022-12-11T03:46:10.714Z,95.75
2022-12-11T03:47:10.664Z,94.49
2022-12-11T03:48:10.625Z,94.18
2022-12-11T03:49:10.606Z,93.77
2022-12-11T03:50:10.653Z,93.87
2022-12-11T03:51:10.591Z,94.39
2022-12-11T03:52:10.576Z,94.29
2022-12-11T03:53:10.605Z,94.49
2022-12-11T03:54:10.558Z,94.60
2022-12-11T03:55:10.862Z,94.18
2022-12-11T03:56:10.545Z,92.83
2022-12-11T03:57:10.537Z,94.75
2022-12-11T03:58:10.591Z,95.33
2022-12-11T03:59:10.571Z,94.81
2022-12-11T04:00:10.496Z,95.58
2022-12-11T04:01:10.567Z,95.64
2022-12-11T04:02:10.521Z,95.64
2022-12-11T04:03:13.602Z,95.23
2022-12-11T04:04:10.553Z,95.23
2022-12-11T04:05:10.665Z,94.70
2022-12-11T04:06:10.474Z,95.48
2022-12-11T04:07:10.407Z,95.89
2022-12-11T04:08:10.468Z,95.95
2022-12-11T04:09:10.454Z,95.23
2022-12-11T04:10:10.366Z,95.94
2022-12-11T04:11:10.485Z,97.50
2022-12-11T04:12:10.368Z,97.14
2022-12-11T04:13:10.537Z,97.35
2022-12-11T04:14:10.340Z,96.83
2022-12-11T04:15:10.689Z,96.36
2022-12-11T04:16:10.386Z,97.92
2022-12-11T04:17:10.301Z,98.13
2022-12-11T04:18:10.343Z,98.55
2022-12-11T04:19:10.268Z,98.65
2022-12-11T04:20:10.278Z,98.39
2022-12-11T04:21:10.384Z,97.77
2022-12-11T04:22:10.299Z,97.31
2022-12-11T04:23:10.227Z,96.58
2022-12-11T04:24:10.237Z,96.37
2022-12-11T04:25:10.506Z,95.85
2022-12-11T04:26:10.189Z,95.91
2022-12-11T04:27:10.177Z,95.18
2022-12-11T04:28:10.173Z,94.76
2022-12-11T04:29:10.214Z,94.56
2022-12-11T04:30:10.200Z,93.93
2022-12-11T04:31:10.205Z,93.93
2022-12-11T04:32:10.247Z,94.60
2022-12-11T04:33:10.147Z,94.49
2022-12-11T04:34:10.097Z,94.81
2022-12-11T04:35:10.435Z,94.81
2022-12-11T04:36:10.098Z,95.54
2022-12-11T04:37:10.077Z,95.54
2022-12-11T04:38:10.068Z,94.92
2022-12-11T04:39:10.078Z,95.54
2022-12-11T04:40:10.062Z,95.43
2022-12-11T04:41:10.019Z,95.64
2022-12-11T04:42:10.008Z,95.02
2022-12-11T04:43:10.027Z,95.17
2022-12-11T04:44:09.986Z,96.73
2022-12-11T04:45:10.233Z,97.14
2022-12-11T04:46:10.063Z,97.04
2022-12-11T04:47:09.948Z,96.69
2022-12-11T04:48:09.939Z,95.75
2022-12-11T04:49:09.930Z,95.95
2022-12-11T04:50:09.918Z,95.75
2022-12-11T04:51:09.933Z,95.64
2022-12-11T04:52:09.919Z,95.58
2022-12-11T04:53:09.934Z,96.26
2022-12-11T04:54:09.969Z,95.95
2022-12-11T04:55:10.123Z,95.85
2022-12-11T04:56:09.924Z,95.39
2022-12-11T04:57:09.829Z,94.70
2022-12-11T04:58:09.859Z,94.66
2022-12-11T04:59:10.794Z,94.24
2022-12-11T05:00:09.800Z,93.83
2022-12-11T05:01:09.919Z,94.29
2022-12-11T05:02:09.822Z,94.96
2022-12-11T05:03:09.784Z,96.21
2022-12-11T05:04:09.800Z,96.69
2022-12-11T05:05:10.225Z,95.75
2022-12-11T05:06:09.761Z,96.37
2022-12-11T05:07:09.720Z,96.26
2022-12-11T05:08:09.891Z,95.29
2022-12-11T05:09:09.698Z,95.39
2022-12-11T05:10:09.776Z,94.76
2022-12-11T05:11:09.704Z,94.41
2022-12-11T05:12:09.674Z,94.14
2022-12-11T05:13:09.653Z,94.31
2022-12-11T05:14:09.649Z,94.41
2022-12-11T05:15:10.030Z,93.93
2022-12-11T05:16:09.716Z,94.35
2022-12-11T05:17:09.922Z,95.08
2022-12-11T05:18:09.630Z,95.18
2022-12-11T05:19:09.640Z,94.98
2022-12-11T05:20:09.575Z,95.08
2022-12-11T05:21:09.561Z,95.18
2022-12-11T05:22:09.580Z,94.56
2022-12-11T05:23:10.470Z,95.39
2022-12-11T05:24:09.533Z,95.54
2022-12-11T05:25:09.972Z,96.12
2022-12-11T05:26:09.512Z,95.81
2022-12-11T05:27:09.499Z,96.26
2022-12-11T05:28:09.500Z,95.91
2022-12-11T05:29:09.520Z,95.39
2022-12-11T05:30:09.465Z,95.39
2022-12-11T05:31:09.642Z,95.50
2022-12-11T05:32:09.526Z,95.29
2022-12-11T05:33:09.420Z,94.72
2022-12-11T05:34:09.490Z,94.62
2022-12-11T05:35:09.855Z,94.10
2022-12-11T05:36:09.392Z,93.89
2022-12-11T05:37:09.622Z,93.99
2022-12-11T05:38:09.380Z,94.20
2022-12-11T05:39:09.384Z,93.68
2022-12-11T05:40:09.342Z,94.45
2022-12-11T05:41:09.351Z,95.81
2022-12-11T05:42:09.340Z,95.50
2022-12-11T05:43:09.381Z,95.39
2022-12-11T05:44:09.331Z,95.18
2022-12-11T05:45:09.460Z,95.91
2022-12-11T05:46:09.393Z,95.70
2022-12-11T05:47:09.267Z,95.50
2022-12-11T05:48:09.280Z,95.50
2022-12-11T05:49:09.252Z,94.93
2022-12-11T05:50:09.242Z,94.41
2022-12-11T05:51:09.281Z,94.20
2022-12-11T05:52:09.214Z,93.89
2022-12-11T05:53:09.256Z,93.73
2022-12-11T05:54:09.214Z,94.35
2022-12-11T05:55:09.598Z,94.75
2022-12-11T05:56:09.183Z,97.55
2022-12-11T05:57:09.197Z,99.95
2022-12-11T05:58:09.134Z,99.99
2022-12-11T05:59:09.142Z,99.99
2022-12-11T06:00:09.118Z,99.99
2022-12-11T06:01:09.101Z,99.99
2022-12-11T06:02:09.170Z,99.99
2022-12-11T06:03:09.206Z,99.99
2022-12-11T06:04:09.100Z,99.99
2022-12-11T06:05:09.518Z,99.99
2022-12-11T06:06:09.370Z,99.99
2022-12-11T06:07:09.042Z,99.99
2022-12-11T06:08:09.099Z,99.99
2022-12-11T06:09:09.014Z,99.96
2022-12-11T06:10:09.012Z,99.96
2022-12-11T06:11:09.002Z,99.59
2022-12-11T06:12:08.972Z,99.99
2022-12-11T06:13:09.003Z,99.99
2022-12-11T06:14:09.022Z,99.99
2022-12-11T06:15:09.256Z,99.75
2022-12-11T06:16:09.006Z,99.71
2022-12-11T06:17:08.965Z,99.33
2022-12-11T06:18:08.923Z,99.13
2022-12-11T06:19:08.903Z,99.27
2022-12-11T06:20:08.936Z,99.80
2022-12-11T06:21:08.884Z,99.99
2022-12-11T06:22:08.862Z,99.99
2022-12-11T06:23:09.143Z,99.99
2022-12-11T06:24:08.844Z,99.48
2022-12-11T06:25:09.624Z,99.80
2022-12-11T06:26:08.868Z,99.99
2022-12-11T06:27:08.886Z,99.99
2022-12-11T06:28:08.803Z,99.99
2022-12-11T06:29:12.462Z,99.99
2022-12-11T06:30:08.783Z,99.99
2022-12-11T06:31:08.858Z,99.99
2022-12-11T06:32:08.867Z,99.99
2022-12-11T06:33:08.773Z,99.65
2022-12-11T06:34:08.736Z,99.99
2022-12-11T06:35:09.083Z,99.99
2022-12-11T06:36:08.704Z,99.99
2022-12-11T06:37:08.715Z,99.99
2022-12-11T06:38:08.705Z,99.99
2022-12-11T06:39:08.688Z,99.29
2022-12-11T06:40:08.684Z,99.18
2022-12-11T06:41:08.667Z,98.25
2022-12-11T06:42:08.665Z,97.99
2022-12-11T06:43:08.718Z,97.78
2022-12-11T06:44:08.617Z,97.78
2022-12-11T06:45:08.887Z,97.37
2022-12-11T06:46:08.685Z,96.95
2022-12-11T06:47:08.588Z,96.75
2022-12-11T06:48:08.590Z,96.33
2022-12-11T06:49:08.585Z,96.18
2022-12-11T06:50:08.566Z,95.87
2022-12-11T06:51:08.561Z,95.76
2022-12-11T06:52:09.976Z,95.66
2022-12-11T06:53:08.519Z,95.70
2022-12-11T06:54:08.645Z,95.39
2022-12-11T06:55:08.845Z,95.81
2022-12-11T06:56:08.524Z,95.60
2022-12-11T06:57:08.554Z,95.81
2022-12-11T06:58:08.475Z,95.70
2022-12-11T06:59:08.460Z,95.70
2022-12-11T07:00:08.455Z,95.81
2022-12-11T07:01:08.461Z,95.18
2022-12-11T07:02:08.512Z,95.18
2022-12-11T07:03:08.394Z,95.03
2022-12-11T07:04:08.491Z,94.51
2022-12-11T07:05:08.453Z,94.66
2022-12-11T07:06:08.397Z,94.98
2022-12-11T07:07:08.400Z,95.70
2022-12-11T07:08:08.385Z,94.87
2022-12-11T07:09:08.351Z,94.45
2022-12-11T07:10:08.805Z,94.70
2022-12-11T07:11:08.337Z,94.87
2022-12-11T07:12:08.335Z,94.81
2022-12-11T07:13:08.300Z,94.81
2022-12-11T07:14:08.285Z,94.81
2022-12-11T07:15:08.625Z,95.29
2022-12-11T07:16:08.284Z,94.45
2022-12-11T07:17:08.265Z,94.56
2022-12-11T07:18:08.228Z,94.98
2022-12-11T07:19:08.226Z,94.45
2022-12-11T07:20:08.217Z,95.08
2022-12-11T07:21:08.197Z,94.87
2022-12-11T07:22:08.303Z,94.87
2022-12-11T07:23:08.282Z,94.24
2022-12-11T07:24:08.166Z,94.04
2022-12-11T07:25:08.585Z,93.73
2022-12-11T07:26:39.630Z,93.68
2022-12-11T07:27:10.447Z,93.89
2022-12-11T07:28:11.199Z,93.16
2022-12-11T07:29:09.349Z,93.68
2022-12-11T07:30:09.879Z,93.27
2022-12-11T07:31:09.208Z,93.05
2022-12-11T07:32:08.489Z,93.27
2022-12-11T07:33:08.549Z,93.58
2022-12-11T07:34:08.149Z,93.05
2022-12-11T07:35:08.455Z,92.54
2022-12-11T07:36:08.077Z,92.85
2022-12-11T07:37:08.135Z,93.16
2022-12-11T07:38:08.239Z,93.37
2022-12-11T07:39:08.186Z,93.73
2022-12-11T07:40:10.186Z,93.37
2022-12-11T07:41:09.179Z,93.58
2022-12-11T07:42:08.166Z,92.68
2022-12-11T07:43:08.423Z,94.08
2022-12-11T07:44:08.320Z,95.12
2022-12-11T07:45:23.773Z,95.43
2022-12-11T07:46:16.024Z,96.26
2022-12-11T07:47:15.891Z,96.33
2022-12-11T07:48:29.963Z,96.01
2022-12-11T07:49:14.280Z,95.91
2022-12-11T07:50:08.066Z,96.53
2022-12-11T07:51:10.574Z,95.39
2022-12-11T07:52:08.167Z,96.26
2022-12-11T07:53:11.091Z,97.00
2022-12-11T07:54:12.709Z,96.16
2022-12-11T07:55:10.412Z,96.58
2022-12-11T07:56:08.915Z,96.01
2022-12-11T07:57:14.204Z,94.62
2022-12-11T07:58:18.020Z,94.82
2022-12-11T07:59:10.026Z,94.62
2022-12-11T08:00:10.763Z,93.89
2022-12-11T08:01:10.174Z,93.68
2022-12-11T08:02:14.674Z,93.16
2022-12-11T08:03:09.812Z,93.79
2022-12-11T08:04:08.467Z,93.43
2022-12-11T08:05:08.930Z,93.33
2022-12-11T08:06:15.771Z,92.39
2022-12-11T08:07:13.456Z,92.49
2022-12-11T08:08:10.296Z,92.29
2022-12-11T08:09:09.903Z,92.24
2022-12-11T08:10:08.752Z,91.41
2022-12-11T08:11:09.632Z,90.69
2022-12-11T08:12:10.736Z,89.95
2022-12-11T08:13:17.546Z,89.75
2022-12-11T08:14:10.626Z,90.26
2022-12-11T08:15:13.683Z,90.58
2022-12-11T08:16:14.373Z,90.37
2022-12-11T08:17:10.715Z,90.16
2022-12-11T08:18:10.082Z,89.75
2022-12-11T08:19:14.583Z,90.37
2022-12-11T08:20:07.974Z,90.58
2022-12-11T08:21:07.582Z,89.64
2022-12-11T08:22:07.569Z,89.64
2022-12-11T08:23:07.501Z,90.41
2022-12-11T08:24:07.490Z,91.14
2022-12-11T08:25:07.470Z,91.87
2022-12-11T08:26:07.476Z,91.14
2022-12-11T08:27:07.552Z,91.25
2022-12-11T08:28:07.483Z,92.43
2022-12-11T08:29:07.429Z,93.68
2022-12-11T08:30:07.450Z,94.31
2022-12-11T08:31:07.463Z,95.39
2022-12-11T08:32:12.067Z,96.53
2022-12-11T08:33:08.423Z,96.95
2022-12-11T08:34:07.392Z,96.08
2022-12-11T08:35:07.361Z,95.97
2022-12-11T08:36:07.757Z,95.20
2022-12-11T08:37:07.385Z,94.32
2022-12-11T08:38:07.320Z,93.60
2022-12-11T08:39:07.591Z,92.80
2022-12-11T08:40:07.331Z,93.01
2022-12-11T08:41:07.319Z,92.55
2022-12-11T08:42:07.299Z,93.18
2022-12-11T08:43:07.278Z,92.91
2022-12-11T08:44:11.612Z,93.01
2022-12-11T08:45:08.646Z,93.48
2022-12-11T08:46:07.347Z,94.16
2022-12-11T08:47:07.240Z,93.64
2022-12-11T08:48:07.232Z,93.64
2022-12-11T08:49:07.203Z,93.49
2022-12-11T08:50:07.210Z,92.86
2022-12-11T08:51:07.213Z,92.41
2022-12-11T08:52:07.240Z,92.03
2022-12-11T08:53:07.311Z,92.51
2022-12-11T08:54:07.262Z,91.41
2022-12-11T08:55:07.121Z,91.83
2022-12-11T08:56:07.211Z,93.12
2022-12-11T08:57:07.101Z,93.29
2022-12-11T08:58:07.143Z,92.45
2022-12-11T08:59:07.092Z,91.78
2022-12-11T09:00:07.210Z,90.54
2022-12-11T09:01:07.191Z,91.10
2022-12-11T09:02:07.191Z,91.93
2022-12-11T09:03:11.272Z,91.16
2022-12-11T09:04:08.092Z,90.58
2022-12-11T09:05:07.111Z,92.14
2022-12-11T09:06:07.261Z,92.14
2022-12-11T09:07:07.019Z,91.58
2022-12-11T09:08:07.032Z,91.37
2022-12-11T09:09:06.983Z,91.20
2022-12-11T09:10:06.960Z,91.99
2022-12-11T09:11:06.942Z,91.37
2022-12-11T09:12:06.924Z,90.91
2022-12-11T09:13:07.088Z,89.83
2022-12-11T09:14:07.965Z,88.90
2022-12-11T09:15:06.974Z,88.38
2022-12-11T09:16:06.941Z,88.17
2022-12-11T09:17:06.895Z,88.17
2022-12-11T09:18:06.946Z,87.55
2022-12-11T09:19:06.886Z,87.17
2022-12-11T09:20:06.846Z,87.59
2022-12-11T09:21:06.855Z,88.21
2022-12-11T09:22:06.836Z,88.17
2022-12-11T09:23:06.938Z,87.86
2022-12-11T09:24:06.835Z,87.86
2022-12-11T09:25:06.822Z,87.24
2022-12-11T09:26:06.773Z,87.69
2022-12-11T09:27:06.766Z,88.28
2022-12-11T09:28:06.765Z,88.38
2022-12-11T09:29:06.754Z,88.07
2022-12-11T09:30:06.734Z,87.34
2022-12-11T09:31:06.793Z,86.51
2022-12-11T09:32:06.755Z,86.65
2022-12-11T09:33:06.706Z,87.27
2022-12-11T09:34:06.797Z,87.48
2022-12-11T09:35:06.673Z,87.55
2022-12-11T09:36:06.706Z,86.82
2022-12-11T09:37:06.704Z,87.13
2022-12-11T09:38:06.635Z,87.27
2022-12-11T09:39:06.636Z,87.17
2022-12-11T09:40:07.893Z,88.62
2022-12-11T09:41:06.604Z,88.52
2022-12-11T09:42:06.624Z,89.08
2022-12-11T09:43:06.584Z,89.18
2022-12-11T09:44:06.565Z,90.69
2022-12-11T09:45:06.566Z,91.20
2022-12-11T09:46:06.567Z,92.49
2022-12-11T09:47:06.537Z,93.54
2022-12-11T09:48:06.537Z,93.29
2022-12-11T09:49:06.555Z,94.26
2022-12-11T09:50:06.495Z,93.60
2022-12-11T09:51:06.488Z,94.32
2022-12-11T09:52:06.475Z,95.51
2022-12-11T09:53:06.511Z,95.87
2022-12-11T09:54:06.458Z,97.62
2022-12-11T09:55:06.449Z,97.99
2022-12-11T09:56:06.447Z,98.93
2022-12-11T09:57:06.415Z,99.20
2022-12-11T09:58:06.406Z,98.16
2022-12-11T09:59:06.446Z,97.89
2022-12-11T10:00:06.398Z,98.57
2022-12-11T10:01:06.474Z,97.28
2022-12-11T10:02:06.380Z,97.59
2022-12-11T10:03:06.356Z,97.03
2022-12-11T10:04:06.347Z,95.73
2022-12-11T10:05:06.356Z,94.28
2022-12-11T10:06:06.390Z,92.57
2022-12-11T10:07:06.333Z,91.16
2022-12-11T10:08:06.341Z,93.12
2022-12-11T10:09:06.278Z,94.37
2022-12-11T10:10:06.288Z,94.89
2022-12-11T10:11:06.299Z,95.26
2022-12-11T10:12:06.300Z,93.54
2022-12-11T10:13:06.237Z,94.32
2022-12-11T10:14:06.259Z,93.03
2022-12-11T10:15:06.335Z,92.36
2022-12-11T10:16:06.309Z,91.85
2022-12-11T10:17:06.185Z,91.39
2022-12-11T10:18:06.185Z,90.77
2022-12-11T10:19:06.179Z,89.69
2022-12-11T10:20:06.158Z,88.75
2022-12-11T10:21:06.171Z,87.96
2022-12-11T10:22:06.168Z,88.48
2022-12-11T10:23:06.128Z,87.55
2022-12-11T10:24:06.137Z,87.45
2022-12-11T10:25:12.552Z,87.38
2022-12-11T10:26:07.273Z,89.50
2022-12-11T10:27:06.068Z,89.50
2022-12-11T10:28:06.108Z,90.02
2022-12-11T10:29:06.069Z,89.29
2022-12-11T10:30:06.050Z,89.15
2022-12-11T10:31:06.095Z,88.21
2022-12-11T10:32:06.030Z,87.79
2022-12-11T10:33:06.020Z,88.10
2022-12-11T10:34:06.060Z,87.94
2022-12-11T10:35:05.988Z,88.19
2022-12-11T10:36:05.971Z,89.37
2022-12-11T10:37:05.958Z,89.69
2022-12-11T10:38:05.951Z,88.92
2022-12-11T10:39:05.971Z,88.67
2022-12-11T10:40:05.924Z,87.63
2022-12-11T10:41:05.926Z,88.71
2022-12-11T10:42:05.934Z,90.37
2022-12-11T10:43:05.908Z,90.89
2022-12-11T10:44:05.882Z,91.41
2022-12-11T10:45:05.924Z,90.08
2022-12-11T10:46:05.913Z,89.00
2022-12-11T10:47:05.858Z,87.34
2022-12-11T10:48:05.869Z,86.51
2022-12-11T10:49:05.847Z,86.05
2022-12-11T10:50:05.860Z,85.74
2022-12-11T10:51:05.819Z,85.72
2022-12-11T10:52:05.812Z,85.51
2022-12-11T10:53:05.779Z,85.03
2022-12-11T10:54:07.484Z,85.16
2022-12-11T10:55:05.751Z,83.70
2022-12-11T10:56:05.760Z,83.53
2022-12-11T10:57:05.738Z,84.27
2022-12-11T10:58:05.723Z,85.82
2022-12-11T10:59:05.731Z,88.15
2022-12-11T11:00:05.715Z,88.46
2022-12-11T11:01:05.690Z,89.08
2022-12-11T11:02:05.750Z,87.92
2022-12-11T11:03:05.692Z,90.66
2022-12-11T11:04:05.651Z,90.72
2022-12-11T11:05:05.652Z,91.25
2022-12-11T11:06:05.641Z,91.56
2022-12-11T11:07:05.671Z,91.56
2022-12-11T11:08:05.696Z,90.33
2022-12-11T11:09:05.608Z,88.62
2022-12-11T11:10:05.609Z,87.48
2022-12-11T11:11:05.575Z,87.46
2022-12-11T11:12:08.108Z,88.40
2022-12-11T11:13:05.589Z,88.71
2022-12-11T11:14:05.540Z,88.67
2022-12-11T11:15:05.541Z,87.04
2022-12-11T11:16:05.566Z,87.25
2022-12-11T11:17:05.510Z,86.67
2022-12-11T11:18:05.490Z,86.94
2022-12-11T11:19:05.512Z,86.94
2022-12-11T11:20:05.472Z,86.32
2022-12-11T11:21:05.477Z,85.59
2022-12-11T11:22:05.441Z,85.80
2022-12-11T11:23:05.446Z,84.27
2022-12-11T11:24:05.452Z,82.29
2022-12-11T11:25:05.445Z,81.42
2022-12-11T11:26:05.418Z,80.73
2022-12-11T11:27:13.244Z,81.30
2022-12-11T11:28:06.410Z,79.65
2022-12-11T11:29:05.388Z,76.99
2022-12-11T11:30:05.383Z,76.78
2022-12-11T11:31:05.422Z,76.02
2022-12-11T11:32:05.362Z,76.12
2022-12-11T11:33:05.340Z,75.92
2022-12-11T11:34:05.312Z,76.02
2022-12-11T11:35:05.323Z,74.36
2022-12-11T11:36:05.344Z,74.26
2022-12-11T11:37:05.301Z,73.77
2022-12-11T11:38:05.330Z,73.94
2022-12-11T11:39:05.252Z,74.26
2022-12-11T11:40:05.257Z,74.22
2022-12-11T11:41:10.123Z,73.74
2022-12-11T11:42:06.244Z,74.46
2022-12-11T11:43:05.214Z,74.88
2022-12-11T11:44:05.196Z,74.50
2022-12-11T11:45:05.190Z,75.60
2022-12-11T11:46:05.248Z,76.78
2022-12-11T11:47:05.175Z,77.72
2022-12-11T11:48:10.924Z,77.72
2022-12-11T11:49:06.144Z,78.17
2022-12-11T11:50:05.134Z,78.75
2022-12-11T11:51:05.116Z,78.55
2022-12-11T11:52:05.113Z,78.79
2022-12-11T11:53:05.146Z,79.69
2022-12-11T11:54:05.103Z,79.10
2022-12-11T11:55:05.084Z,79.48
2022-12-11T11:56:05.073Z,78.65
2022-12-11T11:57:05.063Z,79.52
2022-12-11T11:58:05.044Z,79.58
2022-12-11T11:59:05.077Z,79.17
2022-12-11T12:00:05.024Z,79.17
2022-12-11T12:01:05.006Z,79.21
2022-12-11T12:02:05.004Z,79.83
2022-12-11T12:03:05.091Z,79.58
2022-12-11T12:04:06.267Z,80.29
2022-12-11T12:05:04.994Z,82.20
2022-12-11T12:06:04.977Z,83.20
2022-12-11T12:07:04.934Z,82.64
2022-12-11T12:08:04.967Z,82.01
2022-12-11T12:09:04.925Z,81.18
2022-12-11T12:10:04.996Z,80.70
2022-12-11T12:11:04.929Z,80.46
2022-12-11T12:12:04.889Z,80.04
2022-12-11T12:13:14.314Z,78.75
2022-12-11T12:14:22.535Z,77.61
2022-12-11T12:15:05.870Z,78.03
2022-12-11T12:16:09.819Z,78.51
2022-12-11T12:17:05.876Z,78.37
2022-12-11T12:18:04.816Z,78.20
2022-12-11T12:19:04.797Z,78.58
2022-12-11T12:20:04.826Z,77.09
2022-12-11T12:21:04.813Z,76.06
2022-12-11T12:22:04.757Z,76.68
2022-12-11T12:23:04.781Z,76.26
2022-12-11T12:24:04.745Z,75.74
2022-12-11T12:25:04.776Z,75.85
2022-12-11T12:26:04.705Z,75.92
2022-12-11T12:27:17.555Z,75.40
2022-12-11T12:28:05.705Z,74.88
2022-12-11T12:29:04.694Z,75.43
2022-12-11T12:30:04.696Z,76.78
2022-12-11T12:31:04.722Z,77.06
2022-12-11T12:32:04.658Z,76.19
2022-12-11T12:33:04.687Z,75.92
2022-12-11T12:34:04.620Z,75.67
2022-12-11T12:35:04.624Z,75.40
2022-12-11T12:36:07.061Z,75.88
2022-12-11T12:37:04.617Z,77.26
2022-12-11T12:38:04.575Z,77.44
2022-12-11T12:39:04.568Z,77.12
2022-12-11T12:40:04.548Z,77.37
2022-12-11T12:41:04.554Z,78.61
2022-12-11T12:42:07.685Z,79.13
2022-12-11T12:43:04.557Z,79.13
2022-12-11T12:44:04.623Z,79.06
2022-12-11T12:45:04.498Z,78.75
2022-12-11T12:46:04.551Z,78.61
2022-12-11T12:47:04.519Z,77.40
2022-12-11T12:48:04.491Z,77.68
2022-12-11T12:49:04.508Z,78.03
2022-12-11T12:50:04.462Z,78.09
2022-12-11T12:51:04.428Z,76.61
2022-12-11T12:52:04.420Z,78.92